sensor_id;sensor_type;location;lat;lon;timestamp;pressure;altitude;pressure_sealevel;temperature;humidity
10806;BME280;5455;53.224;6.000;2023-05-01T00:00:53;101940.06;;;8.84;100.00
10806;BME280;5455;53.224;6.000;2023-05-01T00:03:20;101924.53;;;8.80;100.00
10806;BME280;5455;53.224;6.000;2023-05-01T00:05:48;101926.47;;;8.79;100.00
10806;BME280;5455;53.224;6.000;2023-05-01T00:08:15;101931.16;;;8.79;100.00
10806;BME280;5455;53.224;6.000;2023-05-01T00:10:42;101922.72;;;8.75;100.00
10806;BME280;5455;53.224;6.000;2023-05-01T00:13:09;101926.59;;;8.74;100.00
10806;BME280;5455;53.224;6.000;2023-05-01T00:15:39;101920.78;;;8.76;100.00
10806;BME280;5455;53.224;6.000;2023-05-01T00:18:07;101917.22;;;8.75;100.00
10806;BME280;5455;53.224;6.000;2023-05-01T00:20:34;101914.81;;;8.74;100.00
10806;BME280;5455;53.224;6.000;2023-05-01T00:23:01;101917.88;;;8.72;100.00
10806;BME280;5455;53.224;6.000;2023-05-01T00:25:28;101906.72;;;8.77;100.00
10806;BME280;5455;53.224;6.000;2023-05-01T00:27:56;101903.47;;;8.75;100.00
10806;BME280;5455;53.224;6.000;2023-05-01T00:30:25;101907.03;;;8.76;100.00
10806;BME280;5455;53.224;6.000;2023-05-01T00:32:53;101906.22;;;8.75;100.00
10806;BME280;5455;53.224;6.000;2023-05-01T00:35:20;101911.72;;;8.75;100.00
10806;BME280;5455;53.224;6.000;2023-05-01T00:37:47;101899.09;;;8.74;100.00
10806;BME280;5455;53.224;6.000;2023-05-01T00:40:14;101899.91;;;8.75;100.00
10806;BME280;5455;53.224;6.000;2023-05-01T00:42:41;101894.41;;;8.75;100.00
10806;BME280;5455;53.224;6.000;2023-05-01T00:45:09;101887.97;;;8.71;100.00
10806;BME280;5455;53.224;6.000;2023-05-01T00:47:36;101892.66;;;8.70;100.00
10806;BME280;5455;53.224;6.000;2023-05-01T00:50:04;101891.00;;;8.69;100.00
10806;BME280;5455;53.224;6.000;2023-05-01T00:52:31;101888.25;;;8.69;100.00
10806;BME280;5455;53.224;6.000;2023-05-01T00:54:58;101892.13;;;8.68;100.00
10806;BME280;5455;53.224;6.000;2023-05-01T00:57:26;101878.72;;;8.67;100.00
10806;BME280;5455;53.224;6.000;2023-05-01T00:59:53;101872.59;;;8.70;100.00
10806;BME280;5455;53.224;6.000;2023-05-01T01:02:20;101876.16;;;8.70;100.00
10806;BME280;5455;53.224;6.000;2023-05-01T01:04:47;101867.56;;;8.72;100.00
10806;BME280;5455;53.224;6.000;2023-05-01T01:12:56;101855.63;;;8.85;100.00
10806;BME280;5455;53.224;6.000;2023-05-01T01:20:56;101854.47;;;8.77;100.00
10806;BME280;5455;53.224;6.000;2023-05-01T01:26:30;101846.06;;;8.74;100.00
10806;BME280;5455;53.224;6.000;2023-05-01T01:32:06;101833.44;;;8.73;100.00
10806;BME280;5455;53.224;6.000;2023-05-01T01:34:43;101832.97;;;8.71;100.00
10806;BME280;5455;53.224;6.000;2023-05-01T01:37:19;101828.91;;;8.68;100.00
10806;BME280;5455;53.224;6.000;2023-05-01T01:40:01;101822.63;;;8.68;100.00
10806;BME280;5455;53.224;6.000;2023-05-01T01:42:35;101818.53;;;8.65;100.00
10806;BME280;5455;53.224;6.000;2023-05-01T01:45:14;101818.53;;;8.65;100.00
10806;BME280;5455;53.224;6.000;2023-05-01T01:47:45;101810.63;;;8.64;100.00
10806;BME280;5455;53.224;6.000;2023-05-01T01:50:15;101810.94;;;8.62;100.00
10806;BME280;5455;53.224;6.000;2023-05-01T01:52:46;101805.78;;;8.61;100.00
10806;BME280;5455;53.224;6.000;2023-05-01T01:55:15;101807.25;;;8.58;100.00
10806;BME280;5455;53.224;6.000;2023-05-01T01:57:44;101798.47;;;8.56;100.00
10806;BME280;5455;53.224;6.000;2023-05-01T02:00:12;101792.84;;;8.53;100.00
10806;BME280;5455;53.224;6.000;2023-05-01T02:02:45;101789.75;;;8.54;100.00
10806;BME280;5455;53.224;6.000;2023-05-01T02:05:15;101789.75;;;8.54;100.00
10806;BME280;5455;53.224;6.000;2023-05-01T02:07:45;101785.72;;;8.52;100.00
10806;BME280;5455;53.224;6.000;2023-05-01T02:10:15;101790.09;;;8.53;100.00
10806;BME280;5455;53.224;6.000;2023-05-01T02:12:45;101782.16;;;8.51;100.00
10806;BME280;5455;53.224;6.000;2023-05-01T02:15:14;101773.91;;;8.51;100.00
10806;BME280;5455;53.224;6.000;2023-05-01T02:17:44;101776.00;;;8.54;100.00
10806;BME280;5455;53.224;6.000;2023-05-01T02:20:12;101758.72;;;8.54;100.00
10806;BME280;5455;53.224;6.000;2023-05-01T02:22:40;101763.41;;;8.53;100.00
10806;BME280;5455;53.224;6.000;2023-05-01T02:25:09;101763.72;;;8.52;100.00
10806;BME280;5455;53.224;6.000;2023-05-01T02:27:42;101759.06;;;8.52;100.00
10806;BME280;5455;53.224;6.000;2023-05-01T02:30:11;101757.41;;;8.51;100.00
10806;BME280;5455;53.224;6.000;2023-05-01T02:32:38;101755.78;;;8.50;100.00
10806;BME280;5455;53.224;6.000;2023-05-01T02:35:05;101749.19;;;8.51;100.00
10806;BME280;5455;53.224;6.000;2023-05-01T02:37:32;101753.38;;;8.49;100.00
10806;BME280;5455;53.224;6.000;2023-05-01T02:40:02;101742.69;;;8.47;100.00
10806;BME280;5455;53.224;6.000;2023-05-01T02:42:30;101743.84;;;8.46;100.00
10806;BME280;5455;53.224;6.000;2023-05-01T02:45:21;101740.59;;;8.44;100.00
10806;BME280;5455;53.224;6.000;2023-05-01T02:47:51;101732.22;;;8.41;100.00
10806;BME280;5455;53.224;6.000;2023-05-01T02:50:22;101734.16;;;8.40;100.00
10806;BME280;5455;53.224;6.000;2023-05-01T02:52:50;101725.44;;;8.38;100.00
10806;BME280;5455;53.224;6.000;2023-05-01T02:55:33;101722.00;;;8.32;100.00
10806;BME280;5455;53.224;6.000;2023-05-01T02:58:01;101718.47;;;8.32;100.00
10806;BME280;5455;53.224;6.000;2023-05-01T03:00:28;101721.22;;;8.32;100.00
10806;BME280;5455;53.224;6.000;2023-05-01T03:02:55;101717.50;;;8.28;100.00
10806;BME280;5455;53.224;6.000;2023-05-01T03:05:23;101717.75;;;8.26;100.00
10806;BME280;5455;53.224;6.000;2023-05-01T03:07:50;101709.03;;;8.24;100.00
10806;BME280;5455;53.224;6.000;2023-05-01T03:10:17;101706.94;;;8.21;100.00
10806;BME280;5455;53.224;6.000;2023-05-01T03:12:43;101708.72;;;8.17;100.00
10806;BME280;5455;53.224;6.000;2023-05-01T03:15:11;101699.69;;;8.17;100.00
10806;BME280;5455;53.224;6.000;2023-05-01T03:17:38;101695.13;;;8.12;100.00
10806;BME280;5455;53.224;6.000;2023-05-01T03:20:06;101699.34;;;8.10;100.00
10806;BME280;5455;53.224;6.000;2023-05-01T03:22:35;101700.28;;;8.05;100.00
10806;BME280;5455;53.224;6.000;2023-05-01T03:25:02;101695.13;;;8.04;100.00
10806;BME280;5455;53.224;6.000;2023-05-01T03:27:32;101693.84;;;8.01;100.00
10806;BME280;5455;53.224;6.000;2023-05-01T03:29:59;101688.81;;;7.95;100.00
10806;BME280;5455;53.224;6.000;2023-05-01T03:32:29;101685.09;;;7.91;100.00
10806;BME280;5455;53.224;6.000;2023-05-01T03:34:56;101677.81;;;7.86;100.00
10806;BME280;5455;53.224;6.000;2023-05-01T03:37:23;101680.88;;;7.85;100.00
10806;BME280;5455;53.224;6.000;2023-05-01T03:39:51;101677.00;;;7.86;100.00
10806;BME280;5455;53.224;6.000;2023-05-01T03:42:49;101679.13;;;7.89;100.00
10806;BME280;5455;53.224;6.000;2023-05-01T03:45:19;101673.16;;;7.87;100.00
10806;BME280;5455;53.224;6.000;2023-05-01T03:47:46;101675.38;;;7.85;100.00
10806;BME280;5455;53.224;6.000;2023-05-01T03:50:14;101665.03;;;7.82;100.00
10806;BME280;5455;53.224;6.000;2023-05-01T03:52:43;101667.31;;;7.80;100.00
10806;BME280;5455;53.224;6.000;2023-05-01T03:55:10;101666.84;;;7.78;100.00
10806;BME280;5455;53.224;6.000;2023-05-01T03:57:39;101664.09;;;7.78;100.00
10806;BME280;5455;53.224;6.000;2023-05-01T04:00:07;101659.06;;;7.80;100.00
10806;BME280;5455;53.224;6.000;2023-05-01T04:02:45;101660.53;;;7.77;100.00
10806;BME280;5455;53.224;6.000;2023-05-01T04:05:19;101662.13;;;7.78;100.00
10806;BME280;5455;53.224;6.000;2023-05-01T04:07:56;101657.44;;;7.78;100.00
10806;BME280;5455;53.224;6.000;2023-05-01T04:10:24;101653.59;;;7.80;100.00
10806;BME280;5455;53.224;6.000;2023-05-01T04:12:56;101654.06;;;7.82;100.00
10806;BME280;5455;53.224;6.000;2023-05-01T04:15:23;101653.59;;;7.80;100.00
10806;BME280;5455;53.224;6.000;2023-05-01T04:17:51;101656.63;;;7.78;100.00
10806;BME280;5455;53.224;6.000;2023-05-01T04:20:18;101648.41;;;7.78;100.00
10806;BME280;5455;53.224;6.000;2023-05-01T04:22:46;101648.91;;;7.80;100.00
10806;BME280;5455;53.224;6.000;2023-05-01T04:25:13;101648.56;;;7.82;100.00
10806;BME280;5455;53.224;6.000;2023-05-01T04:27:41;101648.44;;;7.87;100.00
10806;BME280;5455;53.224;6.000;2023-05-01T04:30:08;101644.41;;;7.93;100.00
10806;BME280;5455;53.224;6.000;2023-05-01T04:32:35;101644.88;;;7.95;100.00
10806;BME280;5455;53.224;6.000;2023-05-01T04:35:03;101641.16;;;7.99;100.00
10806;BME280;5455;53.224;6.000;2023-05-01T04:37:31;101644.72;;;8.00;100.00
10806;BME280;5455;53.224;6.000;2023-05-01T04:39:58;101640.50;;;8.02;100.00
10806;BME280;5455;53.224;6.000;2023-05-01T04:42:30;101642.47;;;8.02;100.00
10806;BME280;5455;53.224;6.000;2023-05-01T04:44:58;101627.28;;;8.04;100.00
10806;BME280;5455;53.224;6.000;2023-05-01T04:47:32;101626.63;;;8.07;100.00
10806;BME280;5455;53.224;6.000;2023-05-01T04:49:59;101632.44;;;8.14;100.00
10806;BME280;5455;53.224;6.000;2023-05-01T04:52:26;101633.09;;;8.20;100.00
10806;BME280;5455;53.224;6.000;2023-05-01T04:54:57;101636.16;;;8.27;100.00
10806;BME280;5455;53.224;6.000;2023-05-01T04:57:27;101632.47;;;8.32;100.00
10806;BME280;5455;53.224;6.000;2023-05-01T04:59:55;101638.44;;;8.42;100.00
10806;BME280;5455;53.224;6.000;2023-05-01T05:02:23;101638.13;;;8.52;100.00
10806;BME280;5455;53.224;6.000;2023-05-01T05:04:50;101639.56;;;8.58;100.00
10806;BME280;5455;53.224;6.000;2023-05-01T05:07:19;101640.84;;;8.61;100.00
10806;BME280;5455;53.224;6.000;2023-05-01T05:10:13;101636.31;;;8.65;100.00
10806;BME280;5455;53.224;6.000;2023-05-01T05:12:46;101636.78;;;8.67;100.00
10806;BME280;5455;53.224;6.000;2023-05-01T05:15:14;101630.94;;;8.68;100.00
10806;BME280;5455;53.224;6.000;2023-05-01T05:17:42;101637.41;;;8.72;100.00
10806;BME280;5455;53.224;6.000;2023-05-01T05:20:09;101642.72;;;8.77;100.00
10806;BME280;5455;53.224;6.000;2023-05-01T05:22:36;101639.19;;;8.77;100.00
10806;BME280;5455;53.224;6.000;2023-05-01T05:25:19;101643.22;;;8.79;100.00
10806;BME280;5455;53.224;6.000;2023-05-01T05:27:46;101634.63;;;8.81;100.00
10806;BME280;5455;53.224;6.000;2023-05-01T05:30:13;101634.34;;;8.82;100.00
10806;BME280;5455;53.224;6.000;2023-05-01T05:32:40;101632.88;;;8.85;100.00
10806;BME280;5455;53.224;6.000;2023-05-01T05:35:07;101640.00;;;8.86;100.00
10806;BME280;5455;53.224;6.000;2023-05-01T05:37:34;101630.94;;;8.85;100.00
10806;BME280;5455;53.224;6.000;2023-05-01T05:40:01;101637.06;;;8.91;100.00
10806;BME280;5455;53.224;6.000;2023-05-01T05:42:36;101636.56;;;8.98;100.00
10806;BME280;5455;53.224;6.000;2023-05-01T05:45:05;101624.34;;;9.07;100.00
10806;BME280;5455;53.224;6.000;2023-05-01T05:47:33;101625.00;;;9.13;100.00
10806;BME280;5455;53.224;6.000;2023-05-01T05:50:00;101628.38;;;9.18;100.00
10806;BME280;5455;53.224;6.000;2023-05-01T05:52:29;101621.53;;;9.24;100.00
10806;BME280;5455;53.224;6.000;2023-05-01T05:54:57;101622.38;;;9.25;100.00
10806;BME280;5455;53.224;6.000;2023-05-01T05:57:24;101632.22;;;9.26;100.00
10806;BME280;5455;53.224;6.000;2023-05-01T05:59:53;101621.69;;;9.28;100.00
10806;BME280;5455;53.224;6.000;2023-05-01T06:02:23;101623.91;;;9.34;100.00
10806;BME280;5455;53.224;6.000;2023-05-01T06:04:50;101611.09;;;9.38;100.00
10806;BME280;5455;53.224;6.000;2023-05-01T06:07:20;101616.09;;;9.45;100.00
10806;BME280;5455;53.224;6.000;2023-05-01T06:09:47;101613.13;;;9.50;100.00
10806;BME280;5455;53.224;6.000;2023-05-01T06:12:14;101612.97;;;9.55;100.00
10806;BME280;5455;53.224;6.000;2023-05-01T06:14:42;101602.56;;;9.61;100.00
10806;BME280;5455;53.224;6.000;2023-05-01T06:17:09;101612.34;;;9.70;100.00
10806;BME280;5455;53.224;6.000;2023-05-01T06:19:36;101597.75;;;9.78;100.00
10806;BME280;5455;53.224;6.000;2023-05-01T06:22:07;101605.47;;;9.85;100.00
10806;BME280;5455;53.224;6.000;2023-05-01T06:24:40;101597.47;;;9.92;100.00
10806;BME280;5455;53.224;6.000;2023-05-01T06:27:09;101601.22;;;10.08;100.00
10806;BME280;5455;53.224;6.000;2023-05-01T06:29:36;101601.91;;;10.26;100.00
10806;BME280;5455;53.224;6.000;2023-05-01T06:32:04;101602.53;;;10.43;100.00
10806;BME280;5455;53.224;6.000;2023-05-01T06:34:31;101593.75;;;10.62;100.00
10806;BME280;5455;53.224;6.000;2023-05-01T06:36:58;101606.91;;;10.77;100.00
10806;BME280;5455;53.224;6.000;2023-05-01T06:39:25;101606.69;;;10.94;100.00
10806;BME280;5455;53.224;6.000;2023-05-01T06:41:52;101611.09;;;11.07;100.00
10806;BME280;5455;53.224;6.000;2023-05-01T06:44:29;101598.44;;;11.19;100.00
10806;BME280;5455;53.224;6.000;2023-05-01T06:47:00;101597.88;;;11.25;100.00
10806;BME280;5455;53.224;6.000;2023-05-01T06:49:27;101608.78;;;11.34;100.00
10806;BME280;5455;53.224;6.000;2023-05-01T06:51:55;101610.16;;;11.40;100.00
10806;BME280;5455;53.224;6.000;2023-05-01T06:54:21;101602.25;;;11.50;100.00
10806;BME280;5455;53.224;6.000;2023-05-01T06:56:48;101608.78;;;11.58;100.00
10806;BME280;5455;53.224;6.000;2023-05-01T06:59:15;101599.09;;;11.64;100.00
10806;BME280;5455;53.224;6.000;2023-05-01T07:01:43;101600.03;;;11.68;100.00
10806;BME280;5455;53.224;6.000;2023-05-01T07:04:10;101610.38;;;11.83;100.00
10806;BME280;5455;53.224;6.000;2023-05-01T07:06:37;101605.75;;;11.87;100.00
10806;BME280;5455;53.224;6.000;2023-05-01T07:09:04;101605.28;;;11.97;100.00
10806;BME280;5455;53.224;6.000;2023-05-01T07:11:31;101604.53;;;12.12;100.00
10806;BME280;5455;53.224;6.000;2023-05-01T07:13:59;101603.69;;;12.24;100.00
10806;BME280;5455;53.224;6.000;2023-05-01T07:16:26;101612.38;;;12.38;100.00
10806;BME280;5455;53.224;6.000;2023-05-01T07:18:54;101598.66;;;12.42;100.00
10806;BME280;5455;53.224;6.000;2023-05-01T07:21:20;101592.25;;;12.53;100.00
10806;BME280;5455;53.224;6.000;2023-05-01T07:23:48;101589.56;;;12.57;100.00
10806;BME280;5455;53.224;6.000;2023-05-01T07:26:15;101592.06;;;12.62;100.00
10806;BME280;5455;53.224;6.000;2023-05-01T07:28:42;101591.38;;;12.65;100.00
10806;BME280;5455;53.224;6.000;2023-05-01T07:31:09;101587.19;;;12.71;100.00
10806;BME280;5455;53.224;6.000;2023-05-01T07:33:36;101599.25;;;12.79;100.00
10806;BME280;5455;53.224;6.000;2023-05-01T07:36:03;101592.63;;;12.83;100.00
10806;BME280;5455;53.224;6.000;2023-05-01T07:38:30;101600.69;;;12.88;100.00
10806;BME280;5455;53.224;6.000;2023-05-01T07:40:57;101599.09;;;12.87;100.00
10806;BME280;5455;53.224;6.000;2023-05-01T07:43:25;101600.44;;;12.93;100.00
10806;BME280;5455;53.224;6.000;2023-05-01T07:45:59;101599.91;;;13.03;100.00
10806;BME280;5455;53.224;6.000;2023-05-01T07:48:27;101599.97;;;13.07;100.00
10806;BME280;5455;53.224;6.000;2023-05-01T07:50:55;101597.69;;;13.24;100.00
10806;BME280;5455;53.224;6.000;2023-05-01T07:53:23;101597.50;;;13.33;100.00
10806;BME280;5455;53.224;6.000;2023-05-01T07:55:50;101601.94;;;13.38;100.00
10806;BME280;5455;53.224;6.000;2023-05-01T07:58:17;101594.53;;;13.42;100.00
10806;BME280;5455;53.224;6.000;2023-05-01T08:00:44;101602.81;;;13.57;100.00
10806;BME280;5455;53.224;6.000;2023-05-01T08:03:12;101604.66;;;13.69;100.00
10806;BME280;5455;53.224;6.000;2023-05-01T08:05:40;101601.47;;;13.86;100.00
10806;BME280;5455;53.224;6.000;2023-05-01T08:08:07;101600.13;;;13.96;100.00
10806;BME280;5455;53.224;6.000;2023-05-01T08:10:35;101602.03;;;14.11;100.00
10806;BME280;5455;53.224;6.000;2023-05-01T08:13:02;101602.09;;;14.14;94.88
10806;BME280;5455;53.224;6.000;2023-05-01T08:15:29;101594.06;;;14.09;90.51
10806;BME280;5455;53.224;6.000;2023-05-01T08:17:56;101599.91;;;14.23;89.48
10806;BME280;5455;53.224;6.000;2023-05-01T08:20:23;101603.28;;;14.32;89.43
10806;BME280;5455;53.224;6.000;2023-05-01T08:22:50;101593.78;;;14.33;87.58
10806;BME280;5455;53.224;6.000;2023-05-01T08:25:17;101597.50;;;14.41;87.40
10806;BME280;5455;53.224;6.000;2023-05-01T08:27:44;101589.84;;;14.54;87.44
10806;BME280;5455;53.224;6.000;2023-05-01T08:30:12;101593.69;;;14.68;89.55
10806;BME280;5455;53.224;6.000;2023-05-01T08:32:39;101592.75;;;14.83;88.31
10806;BME280;5455;53.224;6.000;2023-05-01T08:35:06;101588.13;;;14.91;87.55
10806;BME280;5455;53.224;6.000;2023-05-01T08:37:33;101583.94;;;15.01;84.91
10806;BME280;5455;53.224;6.000;2023-05-01T08:40:00;101576.97;;;15.10;82.17
10806;BME280;5455;53.224;6.000;2023-05-01T08:42:37;101589.78;;;15.18;79.74
10806;BME280;5455;53.224;6.000;2023-05-01T08:45:08;101573.09;;;15.18;78.34
10806;BME280;5455;53.224;6.000;2023-05-01T08:47:38;101584.75;;;15.27;78.87
10806;BME280;5455;53.224;6.000;2023-05-01T08:50:09;101577.38;;;15.38;76.98
10806;BME280;5455;53.224;6.000;2023-05-01T08:52:40;101579.97;;;15.51;76.91
10806;BME280;5455;53.224;6.000;2023-05-01T08:55:14;101580.22;;;15.65;75.80
10806;BME280;5455;53.224;6.000;2023-05-01T08:57:45;101586.81;;;15.83;73.35
10806;BME280;5455;53.224;6.000;2023-05-01T09:00:19;101582.19;;;15.94;71.86
10806;BME280;5455;53.224;6.000;2023-05-01T09:02:48;101585.84;;;15.98;70.13
10806;BME280;5455;53.224;6.000;2023-05-01T09:05:16;101587.53;;;16.06;69.41
10806;BME280;5455;53.224;6.000;2023-05-01T09:07:44;101580.94;;;16.21;68.78
10806;BME280;5455;53.224;6.000;2023-05-01T09:10:13;101586.38;;;16.44;69.07
10806;BME280;5455;53.224;6.000;2023-05-01T09:12:41;101585.50;;;16.70;69.00
10806;BME280;5455;53.224;6.000;2023-05-01T09:15:11;101583.94;;;16.72;66.50
10806;BME280;5455;53.224;6.000;2023-05-01T09:17:38;101593.63;;;16.52;64.66
10806;BME280;5455;53.224;6.000;2023-05-01T09:20:06;101594.97;;;16.65;65.91
10806;BME280;5455;53.224;6.000;2023-05-01T09:22:34;101587.16;;;16.78;63.47
10806;BME280;5455;53.224;6.000;2023-05-01T09:25:01;101588.16;;;16.99;63.42
10806;BME280;5455;53.224;6.000;2023-05-01T09:27:33;101590.75;;;17.26;65.39
10806;BME280;5455;53.224;6.000;2023-05-01T09:30:01;101590.13;;;17.46;66.76
10806;BME280;5455;53.224;6.000;2023-05-01T09:32:29;101599.78;;;17.56;65.93
10806;BME280;5455;53.224;6.000;2023-05-01T09:35:13;101598.84;;;17.41;63.77
10806;BME280;5455;53.224;6.000;2023-05-01T09:37:41;101606.84;;;17.46;64.60
10806;BME280;5455;53.224;6.000;2023-05-01T09:40:09;101595.22;;;17.37;63.04
10806;BME280;5455;53.224;6.000;2023-05-01T09:42:46;101593.66;;;17.36;63.68
10806;BME280;5455;53.224;6.000;2023-05-01T09:45:16;101594.91;;;17.49;65.05
10806;BME280;5455;53.224;6.000;2023-05-01T09:47:45;101597.28;;;17.44;63.91
10806;BME280;5455;53.224;6.000;2023-05-01T09:50:28;101595.88;;;17.68;63.94
10806;BME280;5455;53.224;6.000;2023-05-01T09:52:56;101593.97;;;17.82;61.86
10806;BME280;5455;53.224;6.000;2023-05-01T09:55:23;101593.94;;;17.79;59.48
10806;BME280;5455;53.224;6.000;2023-05-01T09:57:52;101605.09;;;17.75;59.27
10806;BME280;5455;53.224;6.000;2023-05-01T10:00:19;101590.72;;;17.73;59.27
10806;BME280;5455;53.224;6.000;2023-05-01T10:02:48;101596.75;;;17.82;60.20
10806;BME280;5455;53.224;6.000;2023-05-01T10:05:16;101596.75;;;17.82;60.12
10806;BME280;5455;53.224;6.000;2023-05-01T10:07:58;101601.47;;;17.71;59.27
10806;BME280;5455;53.224;6.000;2023-05-01T10:10:26;101599.97;;;17.84;59.12
10806;BME280;5455;53.224;6.000;2023-05-01T10:12:53;101598.06;;;17.99;58.45
10806;BME280;5455;53.224;6.000;2023-05-01T10:15:21;101596.47;;;18.05;58.46
10806;BME280;5455;53.224;6.000;2023-05-01T10:17:53;101598.59;;;18.29;60.72
10806;BME280;5455;53.224;6.000;2023-05-01T10:20:20;101592.59;;;18.34;58.40
10806;BME280;5455;53.224;6.000;2023-05-01T10:22:47;101590.25;;;18.43;60.55
10806;BME280;5455;53.224;6.000;2023-05-01T10:25:16;101587.91;;;18.52;57.97
10806;BME280;5455;53.224;6.000;2023-05-01T10:27:43;101586.31;;;18.55;59.11
10806;BME280;5455;53.224;6.000;2023-05-01T10:30:10;101587.44;;;18.43;57.88
10806;BME280;5455;53.224;6.000;2023-05-01T10:32:40;101580.72;;;18.55;58.32
10806;BME280;5455;53.224;6.000;2023-05-01T10:35:11;101588.31;;;18.61;58.06
10806;BME280;5455;53.224;6.000;2023-05-01T10:37:48;101582.75;;;18.65;56.71
10806;BME280;5455;53.224;6.000;2023-05-01T10:40:47;101583.53;;;18.69;57.19
10806;BME280;5455;53.224;6.000;2023-05-01T10:43:28;101577.88;;;18.41;56.87
10806;BME280;5455;53.224;6.000;2023-05-01T10:51:19;101583.56;;;18.94;55.79
10806;BME280;5455;53.224;6.000;2023-05-01T10:56:40;101589.50;;;18.60;54.91
10806;BME280;5455;53.224;6.000;2023-05-01T10:59:09;101579.56;;;18.88;55.88
10806;BME280;5455;53.224;6.000;2023-05-01T11:01:41;101581.56;;;19.30;55.30
10806;BME280;5455;53.224;6.000;2023-05-01T11:09:42;101586.31;;;19.78;53.52
10806;BME280;5455;53.224;6.000;2023-05-01T11:12:11;101572.00;;;19.16;54.32
10806;BME280;5455;53.224;6.000;2023-05-01T11:17:48;101574.00;;;19.09;54.54
10806;BME280;5455;53.224;6.000;2023-05-01T11:22:53;101576.00;;;18.98;54.73
10806;BME280;5455;53.224;6.000;2023-05-01T11:25:25;101579.59;;;19.05;54.87
10806;BME280;5455;53.224;6.000;2023-05-01T11:27:58;101578.81;;;19.19;54.81
10806;BME280;5455;53.224;6.000;2023-05-01T11:30:35;101571.56;;;19.32;55.57
10806;BME280;5455;53.224;6.000;2023-05-01T11:33:03;101576.38;;;19.14;56.00
10806;BME280;5455;53.224;6.000;2023-05-01T11:35:32;101574.78;;;18.99;55.65
10806;BME280;5455;53.224;6.000;2023-05-01T11:37:59;101575.97;;;19.05;55.48
10806;BME280;5455;53.224;6.000;2023-05-01T11:40:28;101582.38;;;19.02;56.05
10806;BME280;5455;53.224;6.000;2023-05-01T11:45:28;101577.97;;;18.90;57.06
10806;BME280;5455;53.224;6.000;2023-05-01T11:47:56;101574.78;;;18.88;56.62
10806;BME280;5455;53.224;6.000;2023-05-01T11:50:33;101572.75;;;18.60;55.80
10806;BME280;5455;53.224;6.000;2023-05-01T11:53:02;101573.94;;;18.52;56.91
10806;BME280;5455;53.224;6.000;2023-05-01T11:55:31;101559.13;;;18.41;56.63
10806;BME280;5455;53.224;6.000;2023-05-01T11:57:58;101564.66;;;18.31;57.38
10806;BME280;5455;53.224;6.000;2023-05-01T12:00:30;101561.16;;;18.55;57.26
10806;BME280;5455;53.224;6.000;2023-05-01T12:03:01;101573.09;;;18.48;56.75
10806;BME280;5455;53.224;6.000;2023-05-01T12:05:30;101575.47;;;18.39;57.25
10806;BME280;5455;53.224;6.000;2023-05-01T12:08:16;101570.66;;;18.33;57.43
10806;BME280;5455;53.224;6.000;2023-05-01T12:10:51;101570.53;;;18.01;58.63
10806;BME280;5455;53.224;6.000;2023-05-01T12:13:19;101564.91;;;17.94;58.54
10806;BME280;5455;53.224;6.000;2023-05-01T12:15:48;101565.72;;;17.94;58.43
10806;BME280;5455;53.224;6.000;2023-05-01T12:18:17;101567.28;;;17.81;59.36
10806;BME280;5455;53.224;6.000;2023-05-01T12:20:52;101564.84;;;17.76;60.72
10806;BME280;5455;53.224;6.000;2023-05-01T12:23:34;101567.59;;;17.73;61.43
10806;BME280;5455;53.224;6.000;2023-05-01T12:26:29;101569.19;;;17.70;62.36
10806;BME280;5455;53.224;6.000;2023-05-01T12:29:04;101567.81;;;17.46;62.56
10806;BME280;5455;53.224;6.000;2023-05-01T12:31:32;101570.09;;;17.34;64.35
10806;BME280;5455;53.224;6.000;2023-05-01T12:34:04;101568.09;;;17.31;65.02
10806;BME280;5455;53.224;6.000;2023-05-01T12:36:33;101565.22;;;17.17;63.36
10806;BME280;5455;53.224;6.000;2023-05-01T12:39:06;101573.19;;;17.22;63.34
10806;BME280;5455;53.224;6.000;2023-05-01T12:41:41;101566.03;;;17.21;64.67
10806;BME280;5455;53.224;6.000;2023-05-01T12:44:27;101569.34;;;17.33;65.76
10806;BME280;5455;53.224;6.000;2023-05-01T12:47:08;101580.16;;;17.49;66.78
10806;BME280;5455;53.224;6.000;2023-05-01T12:49:36;101575.97;;;17.69;67.03
10806;BME280;5455;53.224;6.000;2023-05-01T12:52:05;101572.59;;;17.42;66.20
10806;BME280;5455;53.224;6.000;2023-05-01T12:54:33;101578.47;;;17.30;66.57
10806;BME280;5455;53.224;6.000;2023-05-01T12:57:14;101572.91;;;17.34;68.10
10806;BME280;5455;53.224;6.000;2023-05-01T12:59:43;101584.53;;;17.46;68.57
10806;BME280;5455;53.224;6.000;2023-05-01T13:02:12;101578.47;;;17.30;68.91
10806;BME280;5455;53.224;6.000;2023-05-01T13:04:42;101578.78;;;17.18;70.49
10806;BME280;5455;53.224;6.000;2023-05-01T13:07:11;101570.03;;;17.23;71.12
10806;BME280;5455;53.224;6.000;2023-05-01T13:09:51;101570.84;;;17.24;71.09
10806;BME280;5455;53.224;6.000;2023-05-01T13:12:19;101573.16;;;17.15;71.78
10806;BME280;5455;53.224;6.000;2023-05-01T13:14:47;101573.34;;;17.39;72.13
10806;BME280;5455;53.224;6.000;2023-05-01T13:17:22;101572.22;;;17.47;73.13
10806;BME280;5455;53.224;6.000;2023-05-01T13:19:59;101576.50;;;17.34;72.59
10806;BME280;5455;53.224;6.000;2023-05-01T13:22:32;101574.56;;;17.45;74.12
10806;BME280;5455;53.224;6.000;2023-05-01T13:25:04;101575.88;;;17.58;74.98
10806;BME280;5455;53.224;6.000;2023-05-01T13:27:32;101581.81;;;17.53;76.63
10806;BME280;5455;53.224;6.000;2023-05-01T13:29:59;101587.38;;;17.53;75.54
10806;BME280;5455;53.224;6.000;2023-05-01T13:32:28;101582.66;;;17.57;75.37
10806;BME280;5455;53.224;6.000;2023-05-01T13:34:59;101585.84;;;17.56;75.71
10806;BME280;5455;53.224;6.000;2023-05-01T13:37:28;101582.19;;;17.52;73.11
10806;BME280;5455;53.224;6.000;2023-05-01T13:39:56;101584.59;;;17.53;71.21
10806;BME280;5455;53.224;6.000;2023-05-01T13:42:26;101584.66;;;17.60;69.75
10806;BME280;5455;53.224;6.000;2023-05-01T13:44:55;101583.75;;;17.49;69.69
10806;BME280;5455;53.224;6.000;2023-05-01T13:47:24;101589.22;;;17.32;71.52
10806;BME280;5455;53.224;6.000;2023-05-01T13:49:55;101590.81;;;17.33;72.31
10806;BME280;5455;53.224;6.000;2023-05-01T13:52:23;101590.78;;;17.29;73.08